createdAt,value
2016-06-25T00:00:17.096Z,954.04
2016-06-25T00:01:17.121Z,954.03
2016-06-25T00:02:17.142Z,954.01
2016-06-25T00:03:17.190Z,954.01
2016-06-25T00:04:17.189Z,953.98
2016-06-25T00:05:18.126Z,953.95
2016-06-25T00:06:17.146Z,953.97
2016-06-25T00:07:17.081Z,954
2016-06-25T00:08:18.003Z,953.98
2016-06-25T00:09:18.122Z,953.95
2016-06-25T00:10:18.010Z,953.93
2016-06-25T00:11:17.089Z,953.95
2016-06-25T00:12:17.069Z,953.92
2016-06-25T00:13:17.114Z,953.92
2016-06-25T00:14:17.126Z,953.92
2016-06-25T00:15:16.965Z,953.94
2016-06-25T00:16:17.826Z,953.96
2016-06-25T00:17:17.061Z,953.97
2016-06-25T00:18:18.280Z,953.94
2016-06-25T00:19:17.102Z,953.94
2016-06-25T00:20:17.772Z,953.95
2016-06-25T00:21:18.383Z,953.93
2016-06-25T00:22:17.681Z,953.88
2016-06-25T00:23:17.115Z,953.9
2016-06-25T00:24:19.021Z,953.92
2016-06-25T00:25:18.008Z,953.86
2016-06-25T00:26:17.911Z,953.88
2016-06-25T00:27:16.847Z,953.86
2016-06-25T00:28:16.915Z,953.85
2016-06-25T00:29:16.907Z,953.86
2016-06-25T00:30:19.340Z,953.81
2016-06-25T00:31:19.551Z,953.79
2016-06-25T00:32:19.297Z,953.78
2016-06-25T00:33:19.536Z,953.76
2016-06-25T00:34:19.542Z,953.75
2016-06-25T00:35:19.374Z,953.75
2016-06-25T00:36:19.551Z,953.78
2016-06-25T00:37:19.496Z,953.77
2016-06-25T00:38:19.595Z,953.76
2016-06-25T00:39:19.593Z,953.79
2016-06-25T00:40:19.625Z,953.74
2016-06-25T00:41:19.567Z,953.74
2016-06-25T00:42:19.557Z,953.69
2016-06-25T00:43:19.552Z,953.67
2016-06-25T00:44:19.532Z,953.68
2016-06-25T00:45:19.759Z,953.66
2016-06-25T00:46:19.943Z,953.65
2016-06-25T00:47:19.550Z,953.63
2016-06-25T00:48:19.753Z,953.63
2016-06-25T00:49:19.602Z,953.58
2016-06-25T00:50:19.571Z,953.57
2016-06-25T00:51:19.633Z,953.58
2016-06-25T00:52:19.611Z,953.55
2016-06-25T00:53:19.716Z,953.54
2016-06-25T00:54:19.718Z,953.52
2016-06-25T00:55:20.715Z,953.5
2016-06-25T00:56:19.490Z,953.51
2016-06-25T00:57:19.587Z,953.52
2016-06-25T00:58:19.444Z,953.48
2016-06-25T00:59:20.006Z,953.47
2016-06-25T01:00:19.514Z,953.46
2016-06-25T01:01:19.519Z,953.48
2016-06-25T01:02:19.654Z,953.51
2016-06-25T01:03:19.580Z,953.51
2016-06-25T01:04:19.410Z,953.52
2016-06-25T01:05:19.482Z,953.52
2016-06-25T01:06:19.678Z,953.5
2016-06-25T01:07:19.264Z,953.48
2016-06-25T01:08:19.486Z,953.46
2016-06-25T01:09:19.527Z,953.48
2016-06-25T01:10:19.411Z,953.44
2016-06-25T01:11:19.406Z,953.41
2016-06-25T01:12:19.424Z,953.45
2016-06-25T01:13:19.298Z,953.4
2016-06-25T01:14:19.533Z,953.37
2016-06-25T01:15:19.401Z,953.34
2016-06-25T01:16:19.331Z,953.38
2016-06-25T01:17:19.649Z,953.3
2016-06-25T01:18:19.817Z,953.28
2016-06-25T01:19:19.921Z,953.24
2016-06-25T01:20:19.803Z,953.23
